sensor_id;sensor_type;location;lat;lon;timestamp;P1;durP1;ratioP1;P2;durP2;ratioP2
18473;SDS011;30265;52.408;13.500;2022-12-07T00:01:07;40.67;;;11.18;;
18473;SDS011;30265;52.408;13.500;2022-12-07T00:11:33;39.50;;;12.13;;
18473;SDS011;30265;52.408;13.500;2022-12-07T00:21:55;40.17;;;11.98;;
18473;SDS011;30265;52.408;13.500;2022-12-07T00:32:18;38.10;;;11.23;;
18473;SDS011;30265;52.408;13.500;2022-12-07T00:42:40;29.92;;;9.98;;
18473;SDS011;30265;52.408;13.500;2022-12-07T00:53:03;26.98;;;7.65;;
18473;SDS011;30265;52.408;13.500;2022-12-07T01:03:24;19.27;;;6.70;;
18473;SDS011;30265;52.408;13.500;2022-12-07T01:13:48;16.35;;;6.60;;
18473;SDS011;30265;52.408;13.500;2022-12-07T01:24:10;24.83;;;7.70;;
18473;SDS011;30265;52.408;13.500;2022-12-07T01:34:33;19.30;;;6.82;;
18473;SDS011;30265;52.408;13.500;2022-12-07T01:45:22;8.02;;;5.07;;
18473;SDS011;30265;52.408;13.500;2022-12-07T01:56:00;16.52;;;5.18;;
18473;SDS011;30265;52.408;13.500;2022-12-07T02:06:22;17.75;;;7.18;;
18473;SDS011;30265;52.408;13.500;2022-12-07T02:16:51;18.65;;;7.35;;
18473;SDS011;30265;52.408;13.500;2022-12-07T02:27:24;21.88;;;7.63;;
18473;SDS011;30265;52.408;13.500;2022-12-07T02:38:01;9.07;;;4.43;;
18473;SDS011;30265;52.408;13.500;2022-12-07T02:48:25;18.38;;;7.05;;
18473;SDS011;30265;52.408;13.500;2022-12-07T02:58:54;17.20;;;6.45;;
18473;SDS011;30265;52.408;13.500;2022-12-07T03:09:25;11.98;;;4.05;;
18473;SDS011;30265;52.408;13.500;2022-12-07T03:19:56;20.83;;;8.18;;
18473;SDS011;30265;52.408;13.500;2022-12-07T03:30:22;20.27;;;7.45;;
18473;SDS011;30265;52.408;13.500;2022-12-07T03:40:47;16.17;;;5.45;;
18473;SDS011;30265;52.408;13.500;2022-12-07T03:51:13;21.88;;;7.75;;
18473;SDS011;30265;52.408;13.500;2022-12-07T04:01:40;19.60;;;6.43;;
18473;SDS011;30265;52.408;13.500;2022-12-07T04:12:02;24.88;;;9.55;;
18473;SDS011;30265;52.408;13.500;2022-12-07T04:22:26;30.20;;;8.90;;
18473;SDS011;30265;52.408;13.500;2022-12-07T04:32:48;33.50;;;10.38;;
18473;SDS011;30265;52.408;13.500;2022-12-07T04:43:11;28.30;;;11.50;;
18473;SDS011;30265;52.408;13.500;2022-12-07T04:53:33;40.17;;;10.13;;
18473;SDS011;30265;52.408;13.500;2022-12-07T05:03:56;41.13;;;12.50;;
18473;SDS011;30265;52.408;13.500;2022-12-07T05:14:18;64.28;;;18.52;;
18473;SDS011;30265;52.408;13.500;2022-12-07T05:24:42;56.13;;;16.27;;
18473;SDS011;30265;52.408;13.500;2022-12-07T05:35:03;62.42;;;16.33;;
18473;SDS011;30265;52.408;13.500;2022-12-07T05:45:27;50.50;;;12.93;;
18473;SDS011;30265;52.408;13.500;2022-12-07T05:55:48;61.63;;;18.08;;
18473;SDS011;30265;52.408;13.500;2022-12-07T06:06:11;50.40;;;12.60;;
18473;SDS011;30265;52.408;13.500;2022-12-07T06:16:33;56.60;;;14.80;;
18473;SDS011;30265;52.408;13.500;2022-12-07T06:26:56;51.58;;;15.40;;
18473;SDS011;30265;52.408;13.500;2022-12-07T06:37:18;59.88;;;14.98;;
18473;SDS011;30265;52.408;13.500;2022-12-07T06:47:41;54.40;;;16.08;;
18473;SDS011;30265;52.408;13.500;2022-12-07T06:58:05;62.17;;;17.10;;
18473;SDS011;30265;52.408;13.500;2022-12-07T07:08:28;61.72;;;15.70;;
18473;SDS011;30265;52.408;13.500;2022-12-07T07:18:50;58.58;;;16.80;;
18473;SDS011;30265;52.408;13.500;2022-12-07T07:29:13;76.20;;;19.27;;
18473;SDS011;30265;52.408;13.500;2022-12-07T07:39:35;84.03;;;22.48;;
18473;SDS011;30265;52.408;13.500;2022-12-07T07:49:58;43.88;;;13.15;;
18473;SDS011;30265;52.408;13.500;2022-12-07T08:00:20;47.75;;;14.85;;
18473;SDS011;30265;52.408;13.500;2022-12-07T08:10:44;61.85;;;16.05;;
18473;SDS011;30265;52.408;13.500;2022-12-07T08:21:06;36.70;;;12.68;;
18473;SDS011;30265;52.408;13.500;2022-12-07T08:31:30;32.22;;;11.10;;
18473;SDS011;30265;52.408;13.500;2022-12-07T08:41:52;21.67;;;7.82;;
18473;SDS011;30265;52.408;13.500;2022-12-07T08:52:15;15.68;;;7.20;;
18473;SDS011;30265;52.408;13.500;2022-12-07T09:02:37;18.05;;;6.95;;
18473;SDS011;30265;52.408;13.500;2022-12-07T09:13:00;15.18;;;6.05;;
18473;SDS011;30265;52.408;13.500;2022-12-07T09:23:21;10.43;;;5.45;;
18473;SDS011;30265;52.408;13.500;2022-12-07T09:33:45;4.80;;;3.25;;
18473;SDS011;30265;52.408;13.500;2022-12-07T09:44:07;9.77;;;4.38;;
18473;SDS011;30265;52.408;13.500;2022-12-07T09:54:34;6.30;;;3.50;;
18473;SDS011;30265;52.408;13.500;2022-12-07T10:04:57;7.15;;;3.58;;
18473;SDS011;30265;52.408;13.500;2022-12-07T10:15:22;6.70;;;4.15;;
18473;SDS011;30265;52.408;13.500;2022-12-07T10:25:44;8.80;;;3.60;;
18473;SDS011;30265;52.408;13.500;2022-12-07T10:36:19;6.22;;;3.38;;
18473;SDS011;30265;52.408;13.500;2022-12-07T10:47:08;4.82;;;3.28;;
18473;SDS011;30265;52.408;13.500;2022-12-07T10:57:43;8.25;;;3.45;;
18473;SDS011;30265;52.408;13.500;2022-12-07T11:08:14;6.47;;;2.92;;
18473;SDS011;30265;52.408;13.500;2022-12-07T11:18:46;9.52;;;4.05;;
18473;SDS011;30265;52.408;13.500;2022-12-07T11:29:17;9.68;;;4.32;;
18473;SDS011;30265;52.408;13.500;2022-12-07T11:40:00;11.70;;;5.13;;
18473;SDS011;30265;52.408;13.500;2022-12-07T11:50:26;11.87;;;5.87;;
18473;SDS011;30265;52.408;13.500;2022-12-07T12:00:54;11.05;;;5.45;;
18473;SDS011;30265;52.408;13.500;2022-12-07T12:11:34;12.05;;;4.57;;
18473;SDS011;30265;52.408;13.500;2022-12-07T12:22:09;10.63;;;4.60;;
18473;SDS011;30265;52.408;13.500;2022-12-07T12:32:36;10.05;;;5.03;;
18473;SDS011;30265;52.408;13.500;2022-12-07T12:43:02;5.15;;;2.30;;
18473;SDS011;30265;52.408;13.500;2022-12-07T12:53:44;9.02;;;3.55;;
18473;SDS011;30265;52.408;13.500;2022-12-07T13:04:16;8.73;;;3.60;;
18473;SDS011;30265;52.408;13.500;2022-12-07T13:14:57;8.98;;;3.33;;
18473;SDS011;30265;52.408;13.500;2022-12-07T13:25:25;8.20;;;3.28;;
18473;SDS011;30265;52.408;13.500;2022-12-07T13:35:53;8.85;;;3.25;;
18473;SDS011;30265;52.408;13.500;2022-12-07T13:46:18;8.45;;;3.95;;
18473;SDS011;30265;52.408;13.500;2022-12-07T13:56:47;9.32;;;2.95;;
18473;SDS011;30265;52.408;13.500;2022-12-07T14:07:22;9.23;;;3.10;;
18473;SDS011;30265;52.408;13.500;2022-12-07T14:17:49;12.50;;;3.92;;
18473;SDS011;30265;52.408;13.500;2022-12-07T14:28:26;9.83;;;2.70;;
18473;SDS011;30265;52.408;13.500;2022-12-07T14:38:48;8.05;;;3.15;;
18473;SDS011;30265;52.408;13.500;2022-12-07T14:49:14;11.75;;;4.05;;
18473;SDS011;30265;52.408;13.500;2022-12-07T14:59:51;5.00;;;2.85;;
18473;SDS011;30265;52.408;13.500;2022-12-07T15:10:18;15.40;;;3.90;;
18473;SDS011;30265;52.408;13.500;2022-12-07T15:20:43;6.07;;;3.35;;
18473;SDS011;30265;52.408;13.500;2022-12-07T15:31:11;9.82;;;3.70;;
18473;SDS011;30265;52.408;13.500;2022-12-07T15:41:53;12.82;;;4.00;;
18473;SDS011;30265;52.408;13.500;2022-12-07T15:52:15;5.78;;;3.42;;
18473;SDS011;30265;52.408;13.500;2022-12-07T16:02:38;16.27;;;5.32;;
18473;SDS011;30265;52.408;13.500;2022-12-07T16:13:01;8.35;;;3.92;;
18473;SDS011;30265;52.408;13.500;2022-12-07T16:23:23;10.77;;;3.97;;
18473;SDS011;30265;52.408;13.500;2022-12-07T16:33:46;9.88;;;5.10;;
18473;SDS011;30265;52.408;13.500;2022-12-07T16:44:10;15.35;;;4.82;;
18473;SDS011;30265;52.408;13.500;2022-12-07T16:54:34;8.00;;;3.92;;
18473;SDS011;30265;52.408;13.500;2022-12-07T17:04:57;24.60;;;4.88;;
18473;SDS011;30265;52.408;13.500;2022-12-07T17:15:20;17.00;;;4.45;;
18473;SDS011;30265;52.408;13.500;2022-12-07T17:25:42;9.05;;;3.50;;
18473;SDS011;30265;52.408;13.500;2022-12-07T17:36:10;17.85;;;4.80;;
18473;SDS011;30265;52.408;13.500;2022-12-07T17:46:33;20.75;;;7.55;;
18473;SDS011;30265;52.408;13.500;2022-12-07T17:56:56;13.35;;;2.60;;
18473;SDS011;30265;52.408;13.500;2022-12-07T18:07:18;8.32;;;3.83;;
18473;SDS011;30265;52.408;13.500;2022-12-07T18:17:41;12.43;;;4.15;;
18473;SDS011;30265;52.408;13.500;2022-12-07T18:28:02;15.80;;;5.35;;
18473;SDS011;30265;52.408;13.500;2022-12-07T18:38:26;86.22;;;22.65;;
18473;SDS011;30265;52.408;13.500;2022-12-07T18:48:48;22.10;;;6.97;;
18473;SDS011;30265;52.408;13.500;2022-12-07T18:59:12;116.10;;;27.30;;
18473;SDS011;30265;52.408;13.500;2022-12-07T19:09:51;68.65;;;20.17;;
18473;SDS011;30265;52.408;13.500;2022-12-07T19:20:15;117.28;;;39.92;;
18473;SDS011;30265;52.408;13.500;2022-12-07T19:30:36;14.23;;;7.03;;
18473;SDS011;30265;52.408;13.500;2022-12-07T19:41:03;23.63;;;7.10;;
18473;SDS011;30265;52.408;13.500;2022-12-07T19:51:32;18.08;;;7.50;;
18473;SDS011;30265;52.408;13.500;2022-12-07T20:01:58;27.20;;;8.43;;
18473;SDS011;30265;52.408;13.500;2022-12-07T20:23:04;31.38;;;6.88;;
18473;SDS011;30265;52.408;13.500;2022-12-07T20:33:25;12.32;;;6.68;;
18473;SDS011;30265;52.408;13.500;2022-12-07T20:43:50;16.08;;;6.55;;
18473;SDS011;30265;52.408;13.500;2022-12-07T20:54:14;24.02;;;10.82;;
18473;SDS011;30265;52.408;13.500;2022-12-07T21:04:37;20.13;;;6.20;;
18473;SDS011;30265;52.408;13.500;2022-12-07T21:14:58;6.05;;;3.97;;
18473;SDS011;30265;52.408;13.500;2022-12-07T21:25:22;12.73;;;5.40;;
18473;SDS011;30265;52.408;13.500;2022-12-07T21:35:44;11.63;;;5.25;;
18473;SDS011;30265;52.408;13.500;2022-12-07T21:46:08;13.10;;;5.88;;
18473;SDS011;30265;52.408;13.500;2022-12-07T21:56:31;13.60;;;4.85;;
18473;SDS011;30265;52.408;13.500;2022-12-07T22:06:55;31.35;;;9.82;;
18473;SDS011;30265;52.408;13.500;2022-12-07T22:17:18;10.80;;;4.57;;
18473;SDS011;30265;52.408;13.500;2022-12-07T22:27:41;11.93;;;4.45;;
18473;SDS011;30265;52.408;13.500;2022-12-07T22:38:05;15.90;;;6.75;;
18473;SDS011;30265;52.408;13.500;2022-12-07T22:48:34;16.30;;;5.25;;
18473;SDS011;30265;52.408;13.500;2022-12-07T22:58:57;6.47;;;3.53;;
18473;SDS011;30265;52.408;13.500;2022-12-07T23:09:21;15.48;;;3.15;;
18473;SDS011;30265;52.408;13.500;2022-12-07T23:19:42;13.05;;;4.30;;
18473;SDS011;30265;52.408;13.500;2022-12-07T23:30:06;7.32;;;3.05;;
18473;SDS011;30265;52.408;13.500;2022-12-07T23:40:29;10.73;;;3.45;;
18473;SDS011;30265;52.408;13.500;2022-12-07T23:50:52;17.00;;;5.95;;
